Terminal Aerodrome Forecast
Issued by NWS Charleston, WV

Current Version | Previous Version | Graphics & Text | Print | Product List | Glossary On
Versions: 1 2 3 4 5 6 7 8 9 10 11 12 13 14 15 16 17 18 19 20 21 22 23 24 25 26 27 28 29
000
FTUS41 KRLX 241120
TAFCRW
TAF
KCRW 241120Z 2412/2512 VRB03KT 1SM BR SCT001 BKN040
     FM241300 VRB03KT 4SM BR SCT001 BKN040
     FM241400 VRB03KT 4SM -RA BR SCT018 OVC035
     FM241700 14005KT P6SM -RA OVC035
     FM242100 21006KT P6SM OVC035
     FM242200 20005KT P6SM OVC250
     FM250000 18004KT P6SM BKN250
     FM250700 19007KT P6SM -SHRA OVC100=

USA.gov is the U.S. government's official web portal to all federal, state and local government web resources and services.